sensor_id;sensor_type;location;lat;lon;timestamp;temperature;humidity
57564;DHT22;43400;45.926;6.724;2023-02-28T00:00:25;-0.20;86.30
57564;DHT22;43400;45.926;6.724;2023-02-28T00:02:58;-0.20;86.20
57564;DHT22;43400;45.926;6.724;2023-02-28T00:05:32;-0.20;86.60
57564;DHT22;43400;45.926;6.724;2023-02-28T00:08:05;-0.20;86.70
57564;DHT22;43400;45.926;6.724;2023-02-28T00:10:37;-0.10;86.50
57564;DHT22;43400;45.926;6.724;2023-02-28T00:13:10;-0.10;86.90
57564;DHT22;43400;45.926;6.724;2023-02-28T00:15:42;-0.10;86.90
57564;DHT22;43400;45.926;6.724;2023-02-28T00:18:14;-0.10;86.60
57564;DHT22;43400;45.926;6.724;2023-02-28T00:20:47;-0.10;86.90
57564;DHT22;43400;45.926;6.724;2023-02-28T00:23:19;-0.10;87.10
57564;DHT22;43400;45.926;6.724;2023-02-28T00:25:52;-0.10;87.10
57564;DHT22;43400;45.926;6.724;2023-02-28T00:28:24;-0.20;86.70
57564;DHT22;43400;45.926;6.724;2023-02-28T00:30:56;-0.30;87.40
57564;DHT22;43400;45.926;6.724;2023-02-28T00:33:29;-0.20;88.10
57564;DHT22;43400;45.926;6.724;2023-02-28T00:36:07;-0.10;87.80
57564;DHT22;43400;45.926;6.724;2023-02-28T00:38:40;-0.10;87.60
57564;DHT22;43400;45.926;6.724;2023-02-28T00:41:13;-0.10;87.30
57564;DHT22;43400;45.926;6.724;2023-02-28T00:43:45;-0.10;87.40
57564;DHT22;43400;45.926;6.724;2023-02-28T00:46:17;-0.20;87.40
57564;DHT22;43400;45.926;6.724;2023-02-28T00:48:49;-0.30;87.50
57564;DHT22;43400;45.926;6.724;2023-02-28T00:51:21;-0.30;88.00
57564;DHT22;43400;45.926;6.724;2023-02-28T00:53:53;-0.20;88.30
57564;DHT22;43400;45.926;6.724;2023-02-28T00:56:25;-0.20;87.90
57564;DHT22;43400;45.926;6.724;2023-02-28T00:58:57;-0.20;87.80
57564;DHT22;43400;45.926;6.724;2023-02-28T01:01:29;-0.20;87.60
57564;DHT22;43400;45.926;6.724;2023-02-28T01:04:02;-0.10;87.80
57564;DHT22;43400;45.926;6.724;2023-02-28T01:06:33;-0.10;87.90
57564;DHT22;43400;45.926;6.724;2023-02-28T01:09:06;-0.10;87.90
57564;DHT22;43400;45.926;6.724;2023-02-28T01:11:38;0.00;87.80
57564;DHT22;43400;45.926;6.724;2023-02-28T01:14:14;0.00;87.80
57564;DHT22;43400;45.926;6.724;2023-02-28T01:16:46;0.00;87.80
57564;DHT22;43400;45.926;6.724;2023-02-28T01:19:18;0.10;87.90
57564;DHT22;43400;45.926;6.724;2023-02-28T01:21:50;0.10;87.80
57564;DHT22;43400;45.926;6.724;2023-02-28T01:24:22;0.10;88.30
57564;DHT22;43400;45.926;6.724;2023-02-28T01:26:58;0.00;89.20
57564;DHT22;43400;45.926;6.724;2023-02-28T01:29:30;0.00;88.80
57564;DHT22;43400;45.926;6.724;2023-02-28T01:32:02;-0.10;88.50
57564;DHT22;43400;45.926;6.724;2023-02-28T01:34:34;-0.10;89.00
57564;DHT22;43400;45.926;6.724;2023-02-28T01:37:06;0.00;88.90
57564;DHT22;43400;45.926;6.724;2023-02-28T01:39:38;0.10;88.60
57564;DHT22;43400;45.926;6.724;2023-02-28T01:42:12;0.20;88.00
57564;DHT22;43400;45.926;6.724;2023-02-28T01:45:01;0.30;87.30
57564;DHT22;43400;45.926;6.724;2023-02-28T01:47:40;0.30;87.50
57564;DHT22;43400;45.926;6.724;2023-02-28T01:50:19;0.40;87.40
57564;DHT22;43400;45.926;6.724;2023-02-28T01:52:52;0.40;87.60
57564;DHT22;43400;45.926;6.724;2023-02-28T01:55:28;0.40;87.60
57564;DHT22;43400;45.926;6.724;2023-02-28T01:58:02;0.40;87.60
57564;DHT22;43400;45.926;6.724;2023-02-28T02:00:35;0.40;87.70
57564;DHT22;43400;45.926;6.724;2023-02-28T02:03:10;0.40;88.50
57564;DHT22;43400;45.926;6.724;2023-02-28T02:05:42;0.40;88.50
57564;DHT22;43400;45.926;6.724;2023-02-28T02:08:17;0.40;88.40
57564;DHT22;43400;45.926;6.724;2023-02-28T02:10:59;0.30;87.90
57564;DHT22;43400;45.926;6.724;2023-02-28T02:13:42;0.40;88.50
57564;DHT22;43400;45.926;6.724;2023-02-28T02:36:39;0.60;87.10
57564;DHT22;43400;45.926;6.724;2023-02-28T02:39:37;0.50;88.00
57564;DHT22;43400;45.926;6.724;2023-02-28T02:42:16;0.40;88.80
57564;DHT22;43400;45.926;6.724;2023-02-28T02:44:56;0.30;89.80
57564;DHT22;43400;45.926;6.724;2023-02-28T02:47:31;0.30;89.60
57564;DHT22;43400;45.926;6.724;2023-02-28T02:50:07;0.40;89.40
57564;DHT22;43400;45.926;6.724;2023-02-28T02:52:44;0.40;89.10
57564;DHT22;43400;45.926;6.724;2023-02-28T02:55:17;0.40;88.10
57564;DHT22;43400;45.926;6.724;2023-02-28T02:58:01;0.40;88.00
57564;DHT22;43400;45.926;6.724;2023-02-28T03:00:47;0.50;87.90
57564;DHT22;43400;45.926;6.724;2023-02-28T03:03:21;0.50;88.30
57564;DHT22;43400;45.926;6.724;2023-02-28T03:05:53;0.50;88.50
57564;DHT22;43400;45.926;6.724;2023-02-28T03:08:26;0.60;88.70
57564;DHT22;43400;45.926;6.724;2023-02-28T03:11:05;0.50;89.30
57564;DHT22;43400;45.926;6.724;2023-02-28T03:22:18;0.50;88.80
57564;DHT22;43400;45.926;6.724;2023-02-28T03:28:04;0.60;89.00
57564;DHT22;43400;45.926;6.724;2023-02-28T03:31:17;0.60;89.00
57564;DHT22;43400;45.926;6.724;2023-02-28T03:34:30;0.60;88.70
57564;DHT22;43400;45.926;6.724;2023-02-28T03:36:57;0.60;88.70
57564;DHT22;43400;45.926;6.724;2023-02-28T03:39:44;0.70;87.80
57564;DHT22;43400;45.926;6.724;2023-02-28T03:42:25;0.60;88.20
57564;DHT22;43400;45.926;6.724;2023-02-28T03:45:01;0.40;88.70
57564;DHT22;43400;45.926;6.724;2023-02-28T03:47:38;0.40;89.00
57564;DHT22;43400;45.926;6.724;2023-02-28T03:50:19;0.40;89.30
57564;DHT22;43400;45.926;6.724;2023-02-28T03:53:38;0.40;89.90
57564;DHT22;43400;45.926;6.724;2023-02-28T03:56:01;0.40;89.40
57564;DHT22;43400;45.926;6.724;2023-02-28T04:01:46;0.40;89.90
57564;DHT22;43400;45.926;6.724;2023-02-28T04:04:18;0.40;90.10
57564;DHT22;43400;45.926;6.724;2023-02-28T04:06:51;0.30;90.20
57564;DHT22;43400;45.926;6.724;2023-02-28T04:09:23;0.40;90.30
57564;DHT22;43400;45.926;6.724;2023-02-28T04:11:55;0.50;90.10
57564;DHT22;43400;45.926;6.724;2023-02-28T04:14:26;0.60;89.30
57564;DHT22;43400;45.926;6.724;2023-02-28T04:16:58;0.70;89.20
57564;DHT22;43400;45.926;6.724;2023-02-28T04:19:30;0.60;89.40
57564;DHT22;43400;45.926;6.724;2023-02-28T04:22:01;0.60;89.30
57564;DHT22;43400;45.926;6.724;2023-02-28T04:24:32;0.60;89.80
57564;DHT22;43400;45.926;6.724;2023-02-28T04:27:04;0.50;90.00
57564;DHT22;43400;45.926;6.724;2023-02-28T04:29:36;0.60;90.00
57564;DHT22;43400;45.926;6.724;2023-02-28T04:32:07;0.60;89.80
57564;DHT22;43400;45.926;6.724;2023-02-28T04:34:39;0.50;89.80
57564;DHT22;43400;45.926;6.724;2023-02-28T04:37:11;0.40;90.30
57564;DHT22;43400;45.926;6.724;2023-02-28T04:39:43;0.40;90.40
57564;DHT22;43400;45.926;6.724;2023-02-28T04:42:15;0.50;90.10
57564;DHT22;43400;45.926;6.724;2023-02-28T04:44:46;0.50;89.60
57564;DHT22;43400;45.926;6.724;2023-02-28T04:47:18;0.50;90.00
57564;DHT22;43400;45.926;6.724;2023-02-28T04:49:49;0.50;90.30
57564;DHT22;43400;45.926;6.724;2023-02-28T04:52:21;0.40;90.00
57564;DHT22;43400;45.926;6.724;2023-02-28T04:54:53;0.40;90.10
57564;DHT22;43400;45.926;6.724;2023-02-28T04:57:24;0.40;89.90
57564;DHT22;43400;45.926;6.724;2023-02-28T04:59:56;0.40;90.00
57564;DHT22;43400;45.926;6.724;2023-02-28T05:02:28;0.30;90.10
57564;DHT22;43400;45.926;6.724;2023-02-28T05:04:59;0.30;90.00
57564;DHT22;43400;45.926;6.724;2023-02-28T05:07:31;0.30;90.00
57564;DHT22;43400;45.926;6.724;2023-02-28T05:10:03;0.30;89.90
57564;DHT22;43400;45.926;6.724;2023-02-28T05:12:34;0.30;90.00
57564;DHT22;43400;45.926;6.724;2023-02-28T05:15:07;0.40;90.30
57564;DHT22;43400;45.926;6.724;2023-02-28T05:17:40;0.40;90.20
57564;DHT22;43400;45.926;6.724;2023-02-28T05:20:12;0.40;90.10
57564;DHT22;43400;45.926;6.724;2023-02-28T05:22:44;0.50;90.10
57564;DHT22;43400;45.926;6.724;2023-02-28T05:25:19;0.50;89.80
57564;DHT22;43400;45.926;6.724;2023-02-28T05:27:50;0.50;89.80
57564;DHT22;43400;45.926;6.724;2023-02-28T05:30:22;0.50;89.80
57564;DHT22;43400;45.926;6.724;2023-02-28T05:32:53;0.50;89.90
57564;DHT22;43400;45.926;6.724;2023-02-28T05:35:25;0.50;89.90
57564;DHT22;43400;45.926;6.724;2023-02-28T05:37:57;0.50;90.00
57564;DHT22;43400;45.926;6.724;2023-02-28T05:40:29;0.40;90.00
57564;DHT22;43400;45.926;6.724;2023-02-28T05:43:00;0.40;90.00
57564;DHT22;43400;45.926;6.724;2023-02-28T05:45:32;0.40;89.80
57564;DHT22;43400;45.926;6.724;2023-02-28T05:48:04;0.40;90.00
57564;DHT22;43400;45.926;6.724;2023-02-28T05:50:35;0.40;90.00
57564;DHT22;43400;45.926;6.724;2023-02-28T05:53:07;0.40;90.10
57564;DHT22;43400;45.926;6.724;2023-02-28T05:55:39;0.40;90.20
57564;DHT22;43400;45.926;6.724;2023-02-28T05:58:10;0.40;90.40
57564;DHT22;43400;45.926;6.724;2023-02-28T06:00:42;0.20;90.70
57564;DHT22;43400;45.926;6.724;2023-02-28T06:03:14;0.30;90.70
57564;DHT22;43400;45.926;6.724;2023-02-28T06:05:46;0.20;90.60
57564;DHT22;43400;45.926;6.724;2023-02-28T06:08:17;0.20;90.70
57564;DHT22;43400;45.926;6.724;2023-02-28T06:10:49;0.10;90.70
57564;DHT22;43400;45.926;6.724;2023-02-28T06:13:20;0.10;90.80
57564;DHT22;43400;45.926;6.724;2023-02-28T06:15:52;0.10;90.90
57564;DHT22;43400;45.926;6.724;2023-02-28T06:18:24;0.20;90.80
57564;DHT22;43400;45.926;6.724;2023-02-28T06:20:55;0.20;90.70
57564;DHT22;43400;45.926;6.724;2023-02-28T06:23:27;0.30;90.60
57564;DHT22;43400;45.926;6.724;2023-02-28T06:25:59;0.30;90.50
57564;DHT22;43400;45.926;6.724;2023-02-28T06:28:31;0.40;90.50
57564;DHT22;43400;45.926;6.724;2023-02-28T06:31:10;0.40;90.50
57564;DHT22;43400;45.926;6.724;2023-02-28T06:33:44;0.30;90.60
57564;DHT22;43400;45.926;6.724;2023-02-28T06:36:16;0.20;90.90
57564;DHT22;43400;45.926;6.724;2023-02-28T06:38:47;0.10;91.00
57564;DHT22;43400;45.926;6.724;2023-02-28T06:41:19;0.10;91.20
57564;DHT22;43400;45.926;6.724;2023-02-28T06:43:52;0.20;91.20
57564;DHT22;43400;45.926;6.724;2023-02-28T06:46:24;0.20;91.10
57564;DHT22;43400;45.926;6.724;2023-02-28T06:48:55;0.30;91.20
57564;DHT22;43400;45.926;6.724;2023-02-28T06:51:27;0.40;91.20
57564;DHT22;43400;45.926;6.724;2023-02-28T06:53:58;0.50;90.90
57564;DHT22;43400;45.926;6.724;2023-02-28T06:56:30;0.50;90.80
57564;DHT22;43400;45.926;6.724;2023-02-28T06:59:04;0.60;90.80
57564;DHT22;43400;45.926;6.724;2023-02-28T07:01:36;0.60;91.00
57564;DHT22;43400;45.926;6.724;2023-02-28T07:04:07;0.70;90.70
57564;DHT22;43400;45.926;6.724;2023-02-28T07:06:39;0.60;90.70
57564;DHT22;43400;45.926;6.724;2023-02-28T07:09:11;0.60;91.30
57564;DHT22;43400;45.926;6.724;2023-02-28T07:11:42;0.60;91.50
57564;DHT22;43400;45.926;6.724;2023-02-28T07:14:14;0.60;91.40
57564;DHT22;43400;45.926;6.724;2023-02-28T07:16:46;0.70;91.30
57564;DHT22;43400;45.926;6.724;2023-02-28T07:19:17;0.90;91.10
57564;DHT22;43400;45.926;6.724;2023-02-28T07:21:49;1.00;90.80
57564;DHT22;43400;45.926;6.724;2023-02-28T07:24:21;1.10;90.30
57564;DHT22;43400;45.926;6.724;2023-02-28T07:26:52;1.20;90.50
57564;DHT22;43400;45.926;6.724;2023-02-28T07:29:24;1.20;90.20
57564;DHT22;43400;45.926;6.724;2023-02-28T07:31:56;1.20;89.80
57564;DHT22;43400;45.926;6.724;2023-02-28T07:34:28;1.20;89.00
57564;DHT22;43400;45.926;6.724;2023-02-28T07:36:59;1.10;88.60
57564;DHT22;43400;45.926;6.724;2023-02-28T07:39:31;1.20;88.40
57564;DHT22;43400;45.926;6.724;2023-02-28T07:42:06;1.20;87.80
57564;DHT22;43400;45.926;6.724;2023-02-28T07:44:38;1.20;87.80
57564;DHT22;43400;45.926;6.724;2023-02-28T07:47:10;1.10;88.10
57564;DHT22;43400;45.926;6.724;2023-02-28T07:49:42;1.10;88.80
57564;DHT22;43400;45.926;6.724;2023-02-28T07:52:13;1.10;89.70
57564;DHT22;43400;45.926;6.724;2023-02-28T07:54:45;1.00;89.30
57564;DHT22;43400;45.926;6.724;2023-02-28T07:57:17;1.00;89.40
57564;DHT22;43400;45.926;6.724;2023-02-28T07:59:48;1.00;89.50
57564;DHT22;43400;45.926;6.724;2023-02-28T08:02:20;1.20;89.60
57564;DHT22;43400;45.926;6.724;2023-02-28T08:04:52;1.20;89.00
57564;DHT22;43400;45.926;6.724;2023-02-28T08:07:23;1.30;88.70
57564;DHT22;43400;45.926;6.724;2023-02-28T08:09:55;1.30;88.00
57564;DHT22;43400;45.926;6.724;2023-02-28T08:12:26;1.40;88.20
57564;DHT22;43400;45.926;6.724;2023-02-28T08:14:58;1.40;88.10
57564;DHT22;43400;45.926;6.724;2023-02-28T08:17:29;1.30;88.10
57564;DHT22;43400;45.926;6.724;2023-02-28T08:20:01;1.30;88.10
57564;DHT22;43400;45.926;6.724;2023-02-28T08:22:32;1.40;88.00
57564;DHT22;43400;45.926;6.724;2023-02-28T08:25:04;1.40;87.50
57564;DHT22;43400;45.926;6.724;2023-02-28T08:27:36;1.40;87.80
57564;DHT22;43400;45.926;6.724;2023-02-28T08:30:11;1.40;87.80
57564;DHT22;43400;45.926;6.724;2023-02-28T08:32:43;1.50;87.10
57564;DHT22;43400;45.926;6.724;2023-02-28T08:35:14;1.30;87.00
57564;DHT22;43400;45.926;6.724;2023-02-28T08:37:49;1.40;87.10
57564;DHT22;43400;45.926;6.724;2023-02-28T08:40:21;1.50;86.90
57564;DHT22;43400;45.926;6.724;2023-02-28T08:42:53;1.60;86.90
57564;DHT22;43400;45.926;6.724;2023-02-28T08:45:25;1.60;86.60
57564;DHT22;43400;45.926;6.724;2023-02-28T08:47:56;1.60;86.60
57564;DHT22;43400;45.926;6.724;2023-02-28T08:50:28;1.70;86.70
57564;DHT22;43400;45.926;6.724;2023-02-28T08:52:59;1.70;85.60
57564;DHT22;43400;45.926;6.724;2023-02-28T08:55:31;1.80;85.50
57564;DHT22;43400;45.926;6.724;2023-02-28T08:58:02;1.70;85.60
57564;DHT22;43400;45.926;6.724;2023-02-28T09:00:34;1.80;86.10
57564;DHT22;43400;45.926;6.724;2023-02-28T09:03:06;1.80;85.80
57564;DHT22;43400;45.926;6.724;2023-02-28T09:05:38;1.90;85.80
57564;DHT22;43400;45.926;6.724;2023-02-28T09:08:09;2.00;85.50
57564;DHT22;43400;45.926;6.724;2023-02-28T09:10:40;1.90;85.60
57564;DHT22;43400;45.926;6.724;2023-02-28T09:13:12;1.90;86.00
57564;DHT22;43400;45.926;6.724;2023-02-28T09:15:44;2.00;85.10
57564;DHT22;43400;45.926;6.724;2023-02-28T09:18:16;1.90;85.70
57564;DHT22;43400;45.926;6.724;2023-02-28T09:20:48;1.90;85.20
57564;DHT22;43400;45.926;6.724;2023-02-28T09:23:20;2.10;85.30
57564;DHT22;43400;45.926;6.724;2023-02-28T09:25:54;2.30;85.30
57564;DHT22;43400;45.926;6.724;2023-02-28T09:28:26;2.50;84.30
57564;DHT22;43400;45.926;6.724;2023-02-28T09:30:58;2.50;82.80
57564;DHT22;43400;45.926;6.724;2023-02-28T09:33:30;2.60;82.20
57564;DHT22;43400;45.926;6.724;2023-02-28T09:36:02;2.70;81.90
57564;DHT22;43400;45.926;6.724;2023-02-28T09:38:34;2.80;82.10
57564;DHT22;43400;45.926;6.724;2023-02-28T09:41:39;3.10;81.20
57564;DHT22;43400;45.926;6.724;2023-02-28T09:47:00;3.10;79.10
57564;DHT22;43400;45.926;6.724;2023-02-28T09:49:37;3.10;78.10
57564;DHT22;43400;45.926;6.724;2023-02-28T09:52:21;3.30;78.80
57564;DHT22;43400;45.926;6.724;2023-02-28T09:54:58;3.40;78.30
57564;DHT22;43400;45.926;6.724;2023-02-28T09:57:36;3.40;79.00
57564;DHT22;43400;45.926;6.724;2023-02-28T10:05:29;3.60;76.40
57564;DHT22;43400;45.926;6.724;2023-02-28T10:10:42;4.00;75.30
57564;DHT22;43400;45.926;6.724;2023-02-28T10:13:19;3.90;74.40
57564;DHT22;43400;45.926;6.724;2023-02-28T10:16:01;3.90;74.00
57564;DHT22;43400;45.926;6.724;2023-02-28T10:18:46;4.30;74.00
57564;DHT22;43400;45.926;6.724;2023-02-28T10:21:28;4.60;73.30
57564;DHT22;43400;45.926;6.724;2023-02-28T10:24:22;4.70;71.50
57564;DHT22;43400;45.926;6.724;2023-02-28T10:27:00;4.60;71.30
57564;DHT22;43400;45.926;6.724;2023-02-28T10:29:33;4.10;72.00
57564;DHT22;43400;45.926;6.724;2023-02-28T10:32:04;3.90;72.60
57564;DHT22;43400;45.926;6.724;2023-02-28T10:34:36;3.90;73.10
57564;DHT22;43400;45.926;6.724;2023-02-28T10:37:07;4.00;73.30
57564;DHT22;43400;45.926;6.724;2023-02-28T10:39:45;3.90;73.20
57564;DHT22;43400;45.926;6.724;2023-02-28T10:42:26;4.20;72.90
57564;DHT22;43400;45.926;6.724;2023-02-28T10:45:12;4.60;72.10
57564;DHT22;43400;45.926;6.724;2023-02-28T10:50:35;5.00;70.20
57564;DHT22;43400;45.926;6.724;2023-02-28T11:01:36;7.30;63.30
57564;DHT22;43400;45.926;6.724;2023-02-28T11:07:02;7.70;59.80
57564;DHT22;43400;45.926;6.724;2023-02-28T11:09:39;7.20;60.80
57564;DHT22;43400;45.926;6.724;2023-02-28T11:15:01;8.00;60.40
57564;DHT22;43400;45.926;6.724;2023-02-28T11:17:33;8.70;58.80
57564;DHT22;43400;45.926;6.724;2023-02-28T11:20:07;9.90;56.50
57564;DHT22;43400;45.926;6.724;2023-02-28T11:22:46;10.70;54.40
57564;DHT22;43400;45.926;6.724;2023-02-28T11:25:25;11.10;52.20
57564;DHT22;43400;45.926;6.724;2023-02-28T11:28:00;12.10;50.60
57564;DHT22;43400;45.926;6.724;2023-02-28T11:30:39;12.80;49.10
57564;DHT22;43400;45.926;6.724;2023-02-28T11:36:15;12.90;47.70
57564;DHT22;43400;45.926;6.724;2023-02-28T11:38:48;12.30;47.60
57564;DHT22;43400;45.926;6.724;2023-02-28T11:47:35;12.10;50.10
57564;DHT22;43400;45.926;6.724;2023-02-28T12:01:11;12.10;47.00
57564;DHT22;43400;45.926;6.724;2023-02-28T12:06:49;9.60;53.00
57564;DHT22;43400;45.926;6.724;2023-02-28T12:26:46;8.60;56.40
57564;DHT22;43400;45.926;6.724;2023-02-28T12:29:30;8.80;55.60
57564;DHT22;43400;45.926;6.724;2023-02-28T12:32:21;8.80;55.80
57564;DHT22;43400;45.926;6.724;2023-02-28T12:34:59;8.20;56.70
57564;DHT22;43400;45.926;6.724;2023-02-28T12:38:12;8.00;57.80
57564;DHT22;43400;45.926;6.724;2023-02-28T12:41:01;8.30;58.60
57564;DHT22;43400;45.926;6.724;2023-02-28T12:43:42;8.10;57.80
57564;DHT22;43400;45.926;6.724;2023-02-28T12:46:28;8.10;58.50
57564;DHT22;43400;45.926;6.724;2023-02-28T12:49:23;8.60;58.60
57564;DHT22;43400;45.926;6.724;2023-02-28T12:51:59;8.90;57.30
57564;DHT22;43400;45.926;6.724;2023-02-28T12:57:38;9.40;56.40
57564;DHT22;43400;45.926;6.724;2023-02-28T13:00:13;9.40;55.30
57564;DHT22;43400;45.926;6.724;2023-02-28T13:09:14;10.90;53.40
57564;DHT22;43400;45.926;6.724;2023-02-28T13:27:55;9.10;56.70
57564;DHT22;43400;45.926;6.724;2023-02-28T13:38:57;9.30;55.40
57564;DHT22;43400;45.926;6.724;2023-02-28T13:44:09;9.30;55.60
57564;DHT22;43400;45.926;6.724;2023-02-28T13:49:27;9.80;55.60
57564;DHT22;43400;45.926;6.724;2023-02-28T13:52:14;10.10;55.40
57564;DHT22;43400;45.926;6.724;2023-02-28T14:06:50;9.00;57.10
57564;DHT22;43400;45.926;6.724;2023-02-28T14:09:46;9.00;57.00
57564;DHT22;43400;45.926;6.724;2023-02-28T14:15:44;9.20;56.50
57564;DHT22;43400;45.926;6.724;2023-02-28T14:21:10;9.20;56.00
57564;DHT22;43400;45.926;6.724;2023-02-28T14:27:22;9.90;55.00
57564;DHT22;43400;45.926;6.724;2023-02-28T14:33:08;9.60;55.70
57564;DHT22;43400;45.926;6.724;2023-02-28T14:36:55;9.40;55.50
57564;DHT22;43400;45.926;6.724;2023-02-28T14:39:01;9.10;56.90
57564;DHT22;43400;45.926;6.724;2023-02-28T14:41:38;8.80;57.80
57564;DHT22;43400;45.926;6.724;2023-02-28T14:44:28;8.90;58.70
57564;DHT22;43400;45.926;6.724;2023-02-28T14:47:01;8.60;58.90
57564;DHT22;43400;45.926;6.724;2023-02-28T14:49:42;8.60;59.90
57564;DHT22;43400;45.926;6.724;2023-02-28T14:55:16;8.40;60.40
57564;DHT22;43400;45.926;6.724;2023-02-28T14:58:00;8.20;59.90
57564;DHT22;43400;45.926;6.724;2023-02-28T15:00:34;7.90;60.20
57564;DHT22;43400;45.926;6.724;2023-02-28T15:03:20;7.80;61.10
57564;DHT22;43400;45.926;6.724;2023-02-28T15:05:55;7.80;61.10
57564;DHT22;43400;45.926;6.724;2023-02-28T15:08:28;7.70;61.50
57564;DHT22;43400;45.926;6.724;2023-02-28T15:11:04;7.40;61.30
57564;DHT22;43400;45.926;6.724;2023-02-28T15:13:39;7.70;62.40
57564;DHT22;43400;45.926;6.724;2023-02-28T15:16:19;7.90;61.60
57564;DHT22;43400;45.926;6.724;2023-02-28T15:19:22;7.70;62.00
57564;DHT22;43400;45.926;6.724;2023-02-28T15:21:59;7.50;61.80
57564;DHT22;43400;45.926;6.724;2023-02-28T15:24:42;7.30;62.10
57564;DHT22;43400;45.926;6.724;2023-02-28T15:29:56;7.20;63.10
57564;DHT22;43400;45.926;6.724;2023-02-28T15:32:37;7.20;62.60
57564;DHT22;43400;45.926;6.724;2023-02-28T15:35:28;7.10;63.10
57564;DHT22;43400;45.926;6.724;2023-02-28T15:40:53;7.00;63.40
57564;DHT22;43400;45.926;6.724;2023-02-28T15:43:32;7.10;63.40
57564;DHT22;43400;45.926;6.724;2023-02-28T15:46:12;7.00;63.60
57564;DHT22;43400;45.926;6.724;2023-02-28T15:48:53;7.00;63.80
57564;DHT22;43400;45.926;6.724;2023-02-28T15:51:33;6.90;64.00
57564;DHT22;43400;45.926;6.724;2023-02-28T15:54:08;6.60;64.40
57564;DHT22;43400;45.926;6.724;2023-02-28T15:56:45;6.60;65.30
57564;DHT22;43400;45.926;6.724;2023-02-28T15:59:25;6.50;65.30
57564;DHT22;43400;45.926;6.724;2023-02-28T16:05:00;6.00;66.80
57564;DHT22;43400;45.926;6.724;2023-02-28T16:07:32;5.90;67.10
57564;DHT22;43400;45.926;6.724;2023-02-28T16:10:06;5.80;67.30
57564;DHT22;43400;45.926;6.724;2023-02-28T16:12:39;5.70;67.50
57564;DHT22;43400;45.926;6.724;2023-02-28T16:15:22;5.60;67.80
57564;DHT22;43400;45.926;6.724;2023-02-28T16:17:55;5.60;68.20
57564;DHT22;43400;45.926;6.724;2023-02-28T16:20:30;5.60;68.30
57564;DHT22;43400;45.926;6.724;2023-02-28T16:23:01;5.60;68.40
57564;DHT22;43400;45.926;6.724;2023-02-28T16:25:38;5.70;68.90
57564;DHT22;43400;45.926;6.724;2023-02-28T16:28:31;5.70;69.10
57564;DHT22;43400;45.926;6.724;2023-02-28T16:31:06;5.50;68.70
57564;DHT22;43400;45.926;6.724;2023-02-28T16:33:39;5.50;69.80
57564;DHT22;43400;45.926;6.724;2023-02-28T16:36:22;5.50;69.50
57564;DHT22;43400;45.926;6.724;2023-02-28T16:38:54;5.60;69.60
57564;DHT22;43400;45.926;6.724;2023-02-28T16:41:27;5.60;69.80
57564;DHT22;43400;45.926;6.724;2023-02-28T16:43:59;5.60;70.10
57564;DHT22;43400;45.926;6.724;2023-02-28T16:46:34;5.60;69.60
57564;DHT22;43400;45.926;6.724;2023-02-28T16:49:11;5.50;70.40
57564;DHT22;43400;45.926;6.724;2023-02-28T16:51:43;5.40;69.70
57564;DHT22;43400;45.926;6.724;2023-02-28T16:54:14;5.30;69.80
57564;DHT22;43400;45.926;6.724;2023-02-28T16:56:47;5.30;70.50
57564;DHT22;43400;45.926;6.724;2023-02-28T16:59:23;5.20;70.10
57564;DHT22;43400;45.926;6.724;2023-02-28T17:01:55;5.20;70.60
57564;DHT22;43400;45.926;6.724;2023-02-28T17:04:27;5.10;70.50
57564;DHT22;43400;45.926;6.724;2023-02-28T17:06:59;5.10;71.40
57564;DHT22;43400;45.926;6.724;2023-02-28T17:09:30;5.00;71.10
57564;DHT22;43400;45.926;6.724;2023-02-28T17:12:02;4.90;71.40
57564;DHT22;43400;45.926;6.724;2023-02-28T17:14:34;4.90;71.80
57564;DHT22;43400;45.926;6.724;2023-02-28T17:17:06;4.80;72.00
57564;DHT22;43400;45.926;6.724;2023-02-28T17:19:38;4.80;72.30
57564;DHT22;43400;45.926;6.724;2023-02-28T17:22:10;4.70;72.50
57564;DHT22;43400;45.926;6.724;2023-02-28T17:24:42;4.60;72.60
57564;DHT22;43400;45.926;6.724;2023-02-28T17:27:13;4.60;72.80
57564;DHT22;43400;45.926;6.724;2023-02-28T17:29:45;4.50;73.00
57564;DHT22;43400;45.926;6.724;2023-02-28T17:32:17;4.50;73.00
57564;DHT22;43400;45.926;6.724;2023-02-28T17:34:48;4.50;73.50
57564;DHT22;43400;45.926;6.724;2023-02-28T17:37:20;4.40;73.90
57564;DHT22;43400;45.926;6.724;2023-02-28T17:39:51;4.20;74.70
57564;DHT22;43400;45.926;6.724;2023-02-28T17:42:23;4.10;75.00
57564;DHT22;43400;45.926;6.724;2023-02-28T17:44:54;4.00;75.50
57564;DHT22;43400;45.926;6.724;2023-02-28T17:47:26;3.80;76.30
57564;DHT22;43400;45.926;6.724;2023-02-28T17:49:57;3.70;76.90
57564;DHT22;43400;45.926;6.724;2023-02-28T17:52:29;3.60;77.10
57564;DHT22;43400;45.926;6.724;2023-02-28T17:55:00;3.50;77.30
57564;DHT22;43400;45.926;6.724;2023-02-28T17:57:32;3.40;77.80
57564;DHT22;43400;45.926;6.724;2023-02-28T18:00:04;3.30;77.90
57564;DHT22;43400;45.926;6.724;2023-02-28T18:02:36;3.30;78.20
57564;DHT22;43400;45.926;6.724;2023-02-28T18:05:08;3.20;78.40
57564;DHT22;43400;45.926;6.724;2023-02-28T18:07:40;3.10;78.70
57564;DHT22;43400;45.926;6.724;2023-02-28T18:10:20;3.00;79.10
57564;DHT22;43400;45.926;6.724;2023-02-28T18:12:52;3.00;79.00
57564;DHT22;43400;45.926;6.724;2023-02-28T18:15:24;3.00;78.60
57564;DHT22;43400;45.926;6.724;2023-02-28T18:17:55;2.80;79.20
57564;DHT22;43400;45.926;6.724;2023-02-28T18:20:27;2.80;79.80
57564;DHT22;43400;45.926;6.724;2023-02-28T18:22:59;2.70;80.10
57564;DHT22;43400;45.926;6.724;2023-02-28T18:25:30;2.60;80.40
57564;DHT22;43400;45.926;6.724;2023-02-28T18:28:02;2.50;80.30
57564;DHT22;43400;45.926;6.724;2023-02-28T18:30:36;2.50;80.70
57564;DHT22;43400;45.926;6.724;2023-02-28T18:33:08;2.50;80.80
57564;DHT22;43400;45.926;6.724;2023-02-28T18:35:39;2.40;81.10
57564;DHT22;43400;45.926;6.724;2023-02-28T18:38:16;2.20;81.80
57564;DHT22;43400;45.926;6.724;2023-02-28T18:40:56;2.10;82.60
57564;DHT22;43400;45.926;6.724;2023-02-28T18:43:29;2.10;82.70
57564;DHT22;43400;45.926;6.724;2023-02-28T18:46:05;2.10;81.90
57564;DHT22;43400;45.926;6.724;2023-02-28T18:48:37;2.10;82.00
57564;DHT22;43400;45.926;6.724;2023-02-28T18:51:12;2.10;82.40
57564;DHT22;43400;45.926;6.724;2023-02-28T18:53:44;2.00;82.70
57564;DHT22;43400;45.926;6.724;2023-02-28T18:56:18;2.00;83.00
57564;DHT22;43400;45.926;6.724;2023-02-28T18:58:50;2.00;82.50
57564;DHT22;43400;45.926;6.724;2023-02-28T19:01:24;1.90;83.30
57564;DHT22;43400;45.926;6.724;2023-02-28T19:03:56;1.90;84.10
57564;DHT22;43400;45.926;6.724;2023-02-28T19:06:30;1.90;83.40
57564;DHT22;43400;45.926;6.724;2023-02-28T19:09:02;1.80;83.50
57564;DHT22;43400;45.926;6.724;2023-02-28T19:11:35;1.70;84.20
57564;DHT22;43400;45.926;6.724;2023-02-28T19:14:06;1.70;84.30
57564;DHT22;43400;45.926;6.724;2023-02-28T19:16:38;1.70;83.60
57564;DHT22;43400;45.926;6.724;2023-02-28T19:19:09;1.70;83.40
57564;DHT22;43400;45.926;6.724;2023-02-28T19:21:41;1.70;84.40
57564;DHT22;43400;45.926;6.724;2023-02-28T19:24:13;1.60;85.00
57564;DHT22;43400;45.926;6.724;2023-02-28T19:26:44;1.60;84.60
57564;DHT22;43400;45.926;6.724;2023-02-28T19:29:16;1.60;84.30
57564;DHT22;43400;45.926;6.724;2023-02-28T19:31:47;1.70;84.70